createdAt,value
2018-09-26T00:03:06.257Z,67.45
2018-09-26T00:08:01.067Z,66.96
2018-09-26T00:12:55.878Z,65.65
2018-09-26T00:17:50.734Z,65.85
2018-09-26T00:22:45.541Z,66.23
2018-09-26T00:27:40.345Z,65.77
2018-09-26T00:32:35.141Z,67.76
2018-09-26T00:37:29.887Z,68.41
2018-09-26T00:42:24.699Z,69.44
2018-09-26T00:47:19.461Z,70.34
2018-09-26T00:52:14.328Z,70.98
2018-09-26T00:57:09.153Z,71.24
2018-09-26T01:02:03.923Z,71.88
2018-09-26T01:06:58.733Z,72.27
2018-09-26T01:11:53.544Z,71.99
2018-09-26T01:16:48.368Z,72.14
2018-09-26T01:21:43.172Z,72.46
2018-09-26T01:26:37.930Z,71.54
2018-09-26T01:31:32.723Z,73.31
2018-09-26T01:36:27.538Z,71.19
2018-09-26T01:41:22.329Z,72.31
2018-09-26T01:46:17.089Z,74.14
2018-09-26T01:51:11.861Z,73.71
2018-09-26T01:56:06.718Z,72.87
2018-09-26T02:01:01.496Z,75.72
2018-09-26T02:05:56.290Z,74.27
2018-09-26T02:10:51.077Z,74.02
2018-09-26T02:15:45.904Z,74.40
2018-09-26T02:20:40.681Z,75.27
2018-09-26T02:25:35.421Z,75.16
2018-09-26T02:30:30.220Z,74.50
2018-09-26T02:35:25.019Z,74.39
2018-09-26T02:40:19.827Z,74.41
2018-09-26T02:45:14.602Z,75.03
2018-09-26T02:50:09.653Z,76.07
2018-09-26T02:55:04.649Z,75.14
2018-09-26T02:59:59.444Z,76.24
2018-09-26T03:04:54.216Z,76.82
2018-09-26T03:09:49.034Z,76.49
2018-09-26T03:14:43.849Z,75.98
2018-09-26T03:19:38.601Z,76.86
2018-09-26T03:24:33.380Z,77.38
2018-09-26T03:29:28.206Z,76.01
2018-09-26T03:34:22.935Z,76.05
2018-09-26T03:39:17.709Z,76.32
2018-09-26T03:44:12.502Z,77.00
2018-09-26T03:49:07.288Z,78.32
2018-09-26T03:54:02.102Z,77.73
2018-09-26T03:58:56.966Z,77.01
2018-09-26T04:03:51.721Z,77.19
2018-09-26T04:08:46.554Z,75.94
2018-09-26T04:13:41.350Z,78.23
2018-09-26T04:18:36.145Z,78.55
2018-09-26T04:23:30.911Z,78.89
2018-09-26T04:28:25.724Z,78.10
2018-09-26T04:33:20.657Z,76.82
2018-09-26T04:38:15.329Z,79.05
2018-09-26T04:43:10.122Z,80.21
2018-09-26T04:48:04.937Z,77.50
2018-09-26T04:52:59.745Z,78.12
2018-09-26T04:57:54.576Z,77.48
2018-09-26T05:02:49.414Z,78.70
2018-09-26T05:07:44.261Z,78.83
2018-09-26T05:12:39.044Z,78.72
2018-09-26T05:17:34.117Z,78.54
2018-09-26T05:22:28.894Z,79.46
2018-09-26T05:27:23.721Z,78.10
2018-09-26T05:32:18.489Z,78.04
2018-09-26T05:37:13.574Z,78.55
2018-09-26T05:42:08.425Z,79.98
2018-09-26T05:47:03.239Z,79.97
2018-09-26T05:51:58.021Z,80.53
2018-09-26T05:56:52.809Z,80.94
2018-09-26T06:01:47.577Z,81.31
2018-09-26T06:06:42.457Z,81.49
2018-09-26T06:11:37.275Z,81.41
2018-09-26T06:16:32.110Z,81.29
2018-09-26T06:21:26.929Z,81.40
2018-09-26T06:26:21.714Z,82.01
2018-09-26T06:31:16.513Z,80.49
2018-09-26T06:36:11.287Z,80.86
2018-09-26T06:41:06.187Z,80.99
2018-09-26T06:46:00.967Z,81.91
2018-09-26T06:50:55.716Z,81.23
2018-09-26T06:55:50.490Z,80.35
2018-09-26T07:00:45.427Z,79.55
2018-09-26T07:05:40.241Z,79.07
2018-09-26T07:10:35.136Z,79.09
2018-09-26T07:15:29.897Z,77.56
2018-09-26T07:20:24.678Z,77.54
2018-09-26T07:25:19.942Z,75.73
2018-09-26T07:30:14.757Z,75.12
2018-09-26T07:35:09.618Z,73.30
2018-09-26T07:40:04.581Z,72.38
2018-09-26T07:44:59.415Z,71.09
2018-09-26T07:49:54.178Z,68.59
2018-09-26T07:54:48.956Z,67.41
2018-09-26T07:59:43.745Z,66.99
2018-09-26T08:04:38.530Z,63.49
2018-09-26T08:09:33.355Z,61.80
2018-09-26T08:14:28.152Z,62.47
2018-09-26T08:19:22.964Z,60.55
2018-09-26T08:24:17.785Z,60.20
2018-09-26T08:29:12.560Z,61.02
2018-09-26T08:34:07.503Z,60.49
2018-09-26T08:39:02.396Z,60.83
2018-09-26T08:43:57.243Z,60.29
2018-09-26T08:48:51.967Z,58.60
2018-09-26T08:53:47.101Z,62.05
2018-09-26T08:58:41.835Z,60.03
2018-09-26T09:03:36.627Z,59.30
2018-09-26T09:08:31.447Z,58.99
2018-09-26T09:13:26.230Z,57.65
2018-09-26T09:18:21.036Z,60.10
2018-09-26T09:23:15.797Z,58.41
2018-09-26T09:28:10.578Z,60.29
2018-09-26T09:33:05.393Z,58.85
2018-09-26T09:38:00.220Z,56.25
2018-09-26T09:42:55.014Z,58.52
2018-09-26T09:47:49.789Z,57.88
2018-09-26T09:52:44.605Z,58.98
2018-09-26T09:57:39.442Z,57.51
2018-09-26T10:02:34.406Z,56.67
2018-09-26T10:07:29.146Z,61.02
2018-09-26T10:12:24.056Z,59.35
2018-09-26T10:17:18.797Z,60.04
2018-09-26T10:22:13.527Z,58.55
2018-09-26T10:27:08.286Z,60.56
2018-09-26T10:32:02.989Z,59.43
2018-09-26T10:36:57.726Z,58.96
2018-09-26T10:41:52.434Z,57.80
2018-09-26T10:46:47.202Z,58.74
2018-09-26T10:51:42.450Z,59.92
2018-09-26T10:56:37.315Z,58.24
2018-09-26T11:01:31.988Z,59.51
2018-09-26T11:06:26.829Z,58.44
2018-09-26T11:11:21.538Z,60.62
2018-09-26T11:16:16.310Z,62.89
2018-09-26T11:21:11.041Z,62.80
2018-09-26T11:26:05.956Z,61.94
2018-09-26T11:31:00.696Z,61.99
2018-09-26T11:35:55.453Z,60.75
2018-09-26T11:40:50.224Z,61.60
2018-09-26T11:45:44.948Z,60.65
2018-09-26T11:50:39.729Z,61.50
2018-09-26T11:55:34.478Z,62.71
2018-09-26T12:00:29.230Z,61.48
2018-09-26T12:05:24.035Z,61.74
2018-09-26T12:10:18.802Z,62.97
2018-09-26T12:15:13.509Z,63.72
2018-09-26T12:20:08.371Z,64.69
2018-09-26T12:25:03.125Z,63.79
2018-09-26T12:29:57.836Z,65.90
2018-09-26T12:34:52.618Z,65.55
2018-09-26T12:39:47.300Z,65.16
2018-09-26T12:44:42.030Z,65.56
2018-09-26T12:49:36.751Z,64.31
2018-09-26T12:54:31.489Z,65.24
2018-09-26T12:59:26.209Z,66.83
2018-09-26T13:04:20.914Z,66.99
2018-09-26T13:09:15.692Z,66.04
2018-09-26T13:14:10.484Z,66.34
2018-09-26T13:19:05.292Z,66.27
2018-09-26T13:24:00.029Z,65.36
2018-09-26T13:28:54.738Z,64.64
2018-09-26T13:33:49.486Z,64.31
2018-09-26T13:38:44.269Z,64.67
2018-09-26T13:43:39.112Z,63.69
2018-09-26T13:48:33.866Z,64.62
2018-09-26T13:53:28.625Z,64.94
2018-09-26T13:58:23.412Z,63.71
2018-09-26T14:03:18.075Z,64.90
2018-09-26T14:08:12.870Z,65.59
2018-09-26T14:13:07.678Z,64.23
2018-09-26T14:18:02.406Z,63.91
2018-09-26T14:22:57.232Z,65.50
2018-09-26T14:27:51.943Z,64.13
2018-09-26T14:32:46.734Z,64.43
2018-09-26T14:37:41.491Z,63.07
2018-09-26T14:42:36.230Z,63.36
2018-09-26T14:47:30.993Z,64.67
2018-09-26T14:52:25.804Z,65.79
2018-09-26T14:57:20.546Z,66.19
2018-09-26T15:02:15.443Z,67.26
2018-09-26T15:07:10.165Z,65.48
2018-09-26T15:12:05.012Z,66.64
2018-09-26T15:16:59.819Z,66.42
2018-09-26T15:21:54.519Z,67.37
2018-09-26T15:26:49.400Z,65.54
2018-09-26T15:31:44.198Z,67.53
2018-09-26T15:36:39.335Z,66.36
2018-09-26T15:41:34.204Z,66.49
2018-09-26T15:46:28.988Z,65.31
2018-09-26T15:51:23.773Z,65.99
2018-09-26T15:56:18.586Z,67.68
2018-09-26T16:01:13.423Z,67.29
2018-09-26T16:06:08.391Z,68.22
2018-09-26T16:11:03.478Z,68.87
2018-09-26T16:15:58.277Z,69.58
2018-09-26T16:20:53.785Z,69.94
2018-09-26T16:25:48.542Z,69.87
2018-09-26T16:30:43.310Z,70.70
2018-09-26T16:35:38.049Z,70.45
2018-09-26T16:40:32.873Z,70.90
2018-09-26T16:45:28.749Z,71.50
2018-09-26T16:50:23.540Z,71.89
2018-09-26T16:55:18.297Z,73.07
2018-09-26T17:00:13.905Z,75.35
2018-09-26T17:05:08.775Z,77.05
2018-09-26T17:10:03.912Z,78.77
2018-09-26T17:14:59.306Z,79.82
2018-09-26T17:19:54.200Z,80.64
2018-09-26T17:24:49.124Z,81.55
2018-09-26T17:29:43.857Z,80.71
2018-09-26T17:34:38.669Z,80.81
2018-09-26T17:39:33.432Z,81.98
2018-09-26T17:44:28.234Z,82.02
2018-09-26T17:49:23.042Z,83.16
2018-09-26T17:54:17.762Z,83.30
2018-09-26T17:59:12.537Z,83.83
2018-09-26T18:04:07.371Z,83.14
2018-09-26T18:09:02.213Z,83.47
2018-09-26T18:13:56.960Z,83.99
2018-09-26T18:18:51.744Z,84.18
2018-09-26T18:23:46.453Z,85.58
2018-09-26T18:28:41.289Z,85.17
2018-09-26T18:33:36.228Z,84.87
2018-09-26T18:38:30.918Z,85.08
2018-09-26T18:43:25.777Z,85.38
2018-09-26T18:48:21.406Z,85.27
2018-09-26T18:53:17.123Z,84.57
2018-09-26T18:58:11.943Z,84.52
2018-09-26T19:03:06.815Z,85.11
2018-09-26T19:08:01.626Z,84.50
2018-09-26T19:12:56.476Z,84.64
2018-09-26T19:17:51.224Z,84.42
2018-09-26T19:22:46.021Z,85.91
2018-09-26T19:27:50.681Z,85.89
2018-09-26T19:32:54.863Z,85.39
2018-09-26T19:37:57.387Z,85.59
2018-09-26T19:42:57.919Z,86.49
2018-09-26T19:47:57.650Z,85.49
2018-09-26T19:52:53.294Z,86.81
2018-09-26T19:57:50.130Z,85.55
2018-09-26T20:02:46.475Z,85.04
2018-09-26T20:07:50.945Z,85.38
2018-09-26T20:15:24.371Z,84.36
2018-09-26T20:20:20.692Z,85.73
2018-09-26T20:30:24.513Z,87.23
2018-09-26T20:35:19.263Z,87.05
2018-09-26T20:40:14.039Z,84.96
2018-09-26T20:45:09.197Z,85.06
2018-09-26T20:50:05.129Z,84.94
2018-09-26T20:54:59.878Z,85.37
2018-09-26T20:59:54.635Z,86.62
2018-09-26T21:04:49.361Z,85.73
2018-09-26T21:09:44.254Z,85.17
2018-09-26T21:14:39.014Z,86.59
2018-09-26T21:19:33.762Z,84.18
2018-09-26T21:24:29.247Z,85.03
2018-09-26T21:29:24.036Z,85.34
2018-09-26T21:34:20.019Z,84.77
2018-09-26T21:39:14.795Z,85.77
2018-09-26T21:44:09.621Z,86.69
2018-09-26T21:49:04.411Z,86.83
2018-09-26T21:53:59.141Z,85.37
2018-09-26T21:58:53.919Z,85.08
2018-09-26T22:03:48.867Z,84.74
2018-09-26T22:08:43.836Z,85.47
2018-09-26T22:13:38.752Z,85.90
2018-09-26T22:18:33.644Z,85.03
2018-09-26T22:23:28.652Z,86.29
2018-09-26T22:28:23.447Z,86.99
2018-09-26T22:33:18.430Z,86.80
2018-09-26T22:38:13.420Z,87.61
2018-09-26T22:43:08.426Z,87.64
2018-09-26T22:48:03.421Z,88.42
2018-09-26T22:52:58.388Z,85.52
2018-09-26T22:57:53.418Z,85.24
2018-09-26T23:02:48.413Z,85.99
2018-09-26T23:07:43.345Z,86.50
2018-09-26T23:12:38.285Z,85.12
2018-09-26T23:17:33.218Z,86.90
2018-09-26T23:22:28.607Z,87.65
2018-09-26T23:27:23.558Z,88.04
2018-09-26T23:32:18.465Z,86.70
2018-09-26T23:37:13.375Z,86.21
2018-09-26T23:42:08.643Z,85.58
2018-09-26T23:47:03.567Z,86.26
2018-09-26T23:51:58.474Z,86.01
2018-09-26T23:56:53.387Z,86.71
